createdAt,value
2019-02-23T00:01:58.823Z,1.80
2019-02-23T00:04:26.114Z,1.80
2019-02-23T00:06:53.611Z,1.80
2019-02-23T00:09:20.931Z,1.80
2019-02-23T00:11:48.407Z,1.70
2019-02-23T00:14:15.860Z,1.60
2019-02-23T00:16:44.182Z,1.50
2019-02-23T00:19:11.469Z,1.40
2019-02-23T00:21:38.954Z,1.30
2019-02-23T00:24:06.186Z,1.20
2019-02-23T00:26:33.574Z,1.10
2019-02-23T00:29:01.027Z,1.00
2019-02-23T00:31:28.343Z,0.90
2019-02-23T00:33:55.750Z,0.90
2019-02-23T00:36:23.187Z,0.80
2019-02-23T00:38:50.613Z,0.90
2019-02-23T00:41:18.095Z,0.90
2019-02-23T00:43:45.423Z,1.00
2019-02-23T00:46:12.906Z,1.00
2019-02-23T00:48:40.344Z,0.90
2019-02-23T00:51:07.823Z,0.70
2019-02-23T00:53:36.908Z,0.60
2019-02-23T00:56:04.147Z,0.40
2019-02-23T00:58:31.455Z,0.30
2019-02-23T01:00:58.950Z,0.20
2019-02-23T01:03:26.138Z,0.10
2019-02-23T01:05:53.478Z,0.00
2019-02-23T01:08:20.847Z,0.00
2019-02-23T01:10:57.808Z,0.00
2019-02-23T01:13:17.625Z,-0.10
2019-02-23T01:15:45.513Z,-0.10
2019-02-23T01:18:13.255Z,-0.10
2019-02-23T01:20:41.070Z,-0.30
2019-02-23T01:23:08.878Z,-0.30
2019-02-23T01:25:36.615Z,-0.30
2019-02-23T01:28:05.749Z,-0.40
2019-02-23T01:30:32.991Z,-0.40
2019-02-23T01:33:00.395Z,-0.30
2019-02-23T01:35:27.785Z,-0.40
2019-02-23T01:37:55.329Z,-0.50
2019-02-23T01:40:22.890Z,-0.60
2019-02-23T01:42:52.068Z,-0.50
2019-02-23T01:45:19.557Z,-0.50
2019-02-23T01:47:46.913Z,-0.60
2019-02-23T01:50:14.322Z,-0.60
2019-02-23T01:52:41.614Z,-0.60
2019-02-23T01:55:09.052Z,-0.70
2019-02-23T01:57:36.439Z,-0.70
2019-02-23T02:00:04.667Z,-0.80
2019-02-23T02:02:32.178Z,-0.80
2019-02-23T02:04:59.581Z,-0.70
2019-02-23T02:07:27.036Z,-0.80
2019-02-23T02:09:54.527Z,-0.80
2019-02-23T02:12:22.349Z,-0.80
2019-02-23T02:14:51.746Z,-0.90
2019-02-23T02:17:20.338Z,-1.00
2019-02-23T02:19:48.970Z,-1.00
2019-02-23T02:22:16.384Z,-1.10
2019-02-23T02:24:43.752Z,-1.10
2019-02-23T02:27:11.251Z,-1.10
2019-02-23T02:29:38.442Z,-1.20
2019-02-23T02:32:05.959Z,-1.30
2019-02-23T02:34:33.399Z,-1.30
2019-02-23T02:37:02.660Z,-1.30
2019-02-23T02:39:30.243Z,-1.30
2019-02-23T02:41:57.506Z,-1.30
2019-02-23T02:44:24.891Z,-1.20
2019-02-23T02:46:52.276Z,-1.20
2019-02-23T02:49:19.596Z,-1.30
2019-02-23T02:51:46.985Z,-1.30
2019-02-23T02:54:14.485Z,-1.30
2019-02-23T02:56:41.801Z,-1.20
2019-02-23T02:59:09.150Z,-1.20
2019-02-23T03:01:36.575Z,-1.20
2019-02-23T03:04:03.975Z,-1.10
2019-02-23T03:06:31.352Z,-1.10
2019-02-23T03:08:58.670Z,-1.00
2019-02-23T03:11:26.152Z,-1.10
2019-02-23T03:13:53.491Z,-1.00
2019-02-23T03:16:20.748Z,-1.00
2019-02-23T03:18:48.030Z,-1.00
2019-02-23T03:21:16.580Z,-1.10
2019-02-23T03:23:43.864Z,-1.00
2019-02-23T03:26:11.169Z,-1.10
2019-02-23T03:28:38.572Z,-1.20
2019-02-23T03:31:05.797Z,-1.10
2019-02-23T03:33:33.147Z,-1.10
2019-02-23T03:36:00.808Z,-1.00
2019-02-23T03:38:28.615Z,-1.20
2019-02-23T03:40:56.282Z,-1.20
2019-02-23T03:43:23.984Z,-1.30
2019-02-23T03:45:51.612Z,-1.30
2019-02-23T03:48:19.177Z,-1.30
2019-02-23T03:50:49.434Z,-1.40
2019-02-23T03:53:16.499Z,-1.40
2019-02-23T03:55:43.789Z,-1.40
2019-02-23T03:58:12.334Z,-1.30
2019-02-23T04:00:39.807Z,-1.40
2019-02-23T04:03:07.128Z,-1.40
2019-02-23T04:05:34.611Z,-1.40
2019-02-23T04:08:02.339Z,-1.60
2019-02-23T04:10:29.842Z,-1.50
2019-02-23T04:12:57.167Z,-1.50
2019-02-23T04:15:24.646Z,-1.60
2019-02-23T04:17:52.004Z,-1.60
2019-02-23T04:20:19.216Z,-1.70
2019-02-23T04:22:47.931Z,-1.80
2019-02-23T04:25:15.177Z,-1.80
2019-02-23T04:27:53.698Z,-1.80
2019-02-23T04:30:21.671Z,-1.90
2019-02-23T04:32:48.887Z,-1.80
2019-02-23T04:35:16.407Z,-1.80
2019-02-23T04:37:43.794Z,-1.80
2019-02-23T04:40:11.299Z,-1.90
2019-02-23T04:42:38.610Z,-1.90
2019-02-23T04:45:06.141Z,-2.00
2019-02-23T04:47:33.418Z,-1.90
2019-02-23T04:50:00.881Z,-1.90
2019-02-23T04:52:28.285Z,-1.90
2019-02-23T04:54:55.699Z,-1.90
2019-02-23T04:57:23.083Z,-2.00
2019-02-23T04:59:50.289Z,-2.10
2019-02-23T05:02:17.753Z,-2.00
2019-02-23T05:04:45.238Z,-2.00
2019-02-23T05:07:12.931Z,-2.00
2019-02-23T05:09:40.839Z,-2.00
2019-02-23T05:12:08.298Z,-2.10
2019-02-23T05:14:35.818Z,-2.10
2019-02-23T05:17:03.146Z,-2.20
2019-02-23T05:19:30.559Z,-2.20
2019-02-23T05:21:57.861Z,-2.20
2019-02-23T05:24:25.274Z,-2.20
2019-02-23T05:26:52.668Z,-2.20
2019-02-23T05:29:20.085Z,-2.20
2019-02-23T05:31:47.267Z,-2.20
2019-02-23T05:34:14.693Z,-2.10
2019-02-23T05:36:42.044Z,-2.20
2019-02-23T05:39:09.437Z,-2.30
2019-02-23T05:41:36.672Z,-2.30
2019-02-23T05:44:04.139Z,-2.40
2019-02-23T05:46:31.385Z,-2.30
2019-02-23T05:48:58.795Z,-2.20
2019-02-23T05:51:38.111Z,-2.30
2019-02-23T05:53:55.398Z,-2.30
2019-02-23T05:56:22.710Z,-2.40
2019-02-23T05:58:50.488Z,-2.40
2019-02-23T06:01:17.879Z,-2.40
2019-02-23T06:03:45.088Z,-2.40
2019-02-23T06:06:12.276Z,-2.50
2019-02-23T06:08:39.800Z,-2.40
2019-02-23T06:11:07.117Z,-2.50
2019-02-23T06:13:34.522Z,-2.40
2019-02-23T06:16:02.077Z,-2.40
2019-02-23T06:18:29.493Z,-2.50
2019-02-23T06:20:56.792Z,-2.60
2019-02-23T06:23:24.159Z,-2.50
2019-02-23T06:25:51.580Z,-2.50
2019-02-23T06:28:20.947Z,-2.50
2019-02-23T06:30:48.026Z,-2.50
2019-02-23T06:33:15.618Z,-2.50
2019-02-23T06:35:42.866Z,-2.40
2019-02-23T06:38:11.927Z,-2.40
2019-02-23T06:40:39.010Z,-2.50
2019-02-23T06:43:06.269Z,-2.30
2019-02-23T06:45:33.684Z,-2.20
2019-02-23T06:48:01.190Z,-2.20
2019-02-23T06:50:28.607Z,-2.20
2019-02-23T06:52:55.841Z,-2.10
2019-02-23T06:55:23.306Z,-2.00
2019-02-23T06:57:50.483Z,-2.00
2019-02-23T07:01:50.514Z,-1.90
2019-02-23T07:04:18.516Z,-1.80
2019-02-23T07:06:47.908Z,-1.80
2019-02-23T07:09:16.040Z,-1.70
2019-02-23T07:11:44.335Z,-1.70
2019-02-23T07:14:12.586Z,-1.60
2019-02-23T07:16:40.892Z,-1.50
2019-02-23T07:19:08.933Z,-1.50
2019-02-23T07:21:37.239Z,-1.40
2019-02-23T07:24:05.392Z,-1.40
2019-02-23T07:26:33.692Z,-1.40
2019-02-23T07:29:01.869Z,-1.30
2019-02-23T07:31:30.100Z,-1.20
2019-02-23T07:33:58.440Z,-1.20
2019-02-23T07:36:26.755Z,-1.10
2019-02-23T07:38:54.989Z,-1.00
2019-02-23T07:41:24.637Z,-0.90
2019-02-23T07:43:52.747Z,-0.90
2019-02-23T07:46:20.908Z,-0.80
2019-02-23T07:48:49.079Z,-0.80
2019-02-23T07:51:17.274Z,-0.80
2019-02-23T07:53:45.324Z,-0.70
2019-02-23T07:56:13.419Z,-0.60
2019-02-23T07:58:41.556Z,-0.60
2019-02-23T08:01:09.839Z,-0.60
2019-02-23T08:03:38.135Z,-0.50
2019-02-23T08:06:06.130Z,-0.50
2019-02-23T08:08:34.453Z,-0.50
2019-02-23T08:11:02.637Z,-0.50
2019-02-23T08:13:30.740Z,-0.40
2019-02-23T08:16:00.570Z,-0.40
2019-02-23T08:18:28.590Z,-0.30
2019-02-23T08:20:56.880Z,-0.20
2019-02-23T08:23:25.078Z,-0.30
2019-02-23T08:25:52.995Z,-0.40
2019-02-23T08:28:21.163Z,-0.10
2019-02-23T08:30:50.723Z,0.00
2019-02-23T08:33:18.848Z,0.00
2019-02-23T08:35:47.155Z,0.10
2019-02-23T08:38:15.519Z,0.30
2019-02-23T08:40:45.661Z,0.40
2019-02-23T08:43:13.801Z,0.40
2019-02-23T08:45:41.955Z,0.10
2019-02-23T08:48:10.074Z,0.30
2019-02-23T08:50:38.211Z,0.30
2019-02-23T08:53:06.535Z,0.40
2019-02-23T08:55:34.862Z,0.50
2019-02-23T08:58:03.043Z,0.60
2019-02-23T09:00:31.351Z,0.70
2019-02-23T09:02:59.692Z,0.80
2019-02-23T09:05:27.792Z,0.90
2019-02-23T09:07:55.956Z,1.10
2019-02-23T09:10:24.243Z,1.20
2019-02-23T09:12:52.489Z,1.20
2019-02-23T09:15:22.256Z,1.00
2019-02-23T09:17:50.483Z,0.90
2019-02-23T09:20:28.682Z,1.00
2019-02-23T09:22:59.520Z,0.80
2019-02-23T09:25:18.511Z,1.00
2019-02-23T09:27:46.672Z,1.10
2019-02-23T09:30:14.726Z,1.00
2019-02-23T09:32:42.944Z,0.80
2019-02-23T09:35:11.072Z,0.90
2019-02-23T09:37:39.127Z,1.00
2019-02-23T09:40:08.080Z,1.10
2019-02-23T09:42:36.212Z,1.20
2019-02-23T09:45:04.824Z,1.30
2019-02-23T09:47:32.971Z,1.20
2019-02-23T09:50:01.161Z,1.10
2019-02-23T09:52:29.402Z,1.10
2019-02-23T09:54:57.680Z,1.10
2019-02-23T09:57:25.896Z,1.10
2019-02-23T09:59:54.039Z,1.30
2019-02-23T10:02:22.251Z,1.20
2019-02-23T10:04:50.427Z,1.20
2019-02-23T10:07:18.563Z,1.20
2019-02-23T10:09:46.775Z,1.30
2019-02-23T10:12:14.992Z,1.40
2019-02-23T10:14:43.207Z,1.40
2019-02-23T10:17:11.381Z,1.40
2019-02-23T10:19:39.626Z,1.50
2019-02-23T10:22:07.718Z,1.60
2019-02-23T10:24:35.967Z,1.70
2019-02-23T10:27:04.303Z,1.80
2019-02-23T10:29:32.511Z,1.80
2019-02-23T10:32:00.582Z,1.80
2019-02-23T10:34:28.808Z,1.90
2019-02-23T10:36:56.941Z,2.00
2019-02-23T10:39:24.936Z,1.90
2019-02-23T10:41:53.078Z,2.00
2019-02-23T10:44:21.275Z,2.20
2019-02-23T10:46:49.465Z,2.20
2019-02-23T10:49:17.632Z,2.20
2019-02-23T10:51:45.769Z,2.20
2019-02-23T10:54:13.867Z,2.20
2019-02-23T10:56:42.043Z,2.20
2019-02-23T10:59:10.085Z,2.40
2019-02-23T11:01:38.502Z,2.50
2019-02-23T11:04:06.542Z,2.40
2019-02-23T11:06:34.747Z,2.30
2019-02-23T11:09:03.472Z,2.70
2019-02-23T11:11:31.594Z,2.60
2019-02-23T11:13:59.757Z,2.80
2019-02-23T11:16:27.911Z,2.60
2019-02-23T11:18:56.016Z,2.50
2019-02-23T11:21:24.185Z,2.60
2019-02-23T11:23:52.231Z,2.70
2019-02-23T11:26:20.392Z,2.80
2019-02-23T11:28:48.616Z,2.80
2019-02-23T11:31:16.685Z,2.90
2019-02-23T11:33:44.844Z,2.70
2019-02-23T11:36:13.093Z,3.00
2019-02-23T11:38:41.284Z,3.00
2019-02-23T11:41:10.704Z,3.00
2019-02-23T11:43:38.856Z,3.10
2019-02-23T11:46:07.156Z,3.10
2019-02-23T11:48:35.306Z,3.00
2019-02-23T11:51:03.462Z,3.00
2019-02-23T11:53:31.960Z,3.20
2019-02-23T11:56:00.040Z,3.20
2019-02-23T11:58:29.919Z,3.20
2019-02-23T12:00:59.649Z,3.20
2019-02-23T12:03:27.770Z,3.30
2019-02-23T12:05:55.892Z,3.30
2019-02-23T12:08:24.192Z,3.30
2019-02-23T12:10:52.237Z,3.20
2019-02-23T12:13:20.536Z,3.30
2019-02-23T12:15:48.809Z,3.40
2019-02-23T12:18:17.092Z,3.40
2019-02-23T12:20:45.399Z,3.50
2019-02-23T12:23:15.237Z,3.40
2019-02-23T12:25:43.471Z,3.60
2019-02-23T12:28:11.520Z,3.40
2019-02-23T12:30:39.802Z,3.60
2019-02-23T12:33:08.104Z,3.80
2019-02-23T12:35:36.294Z,3.80
2019-02-23T12:38:04.495Z,3.80
2019-02-23T12:40:32.902Z,3.60
2019-02-23T12:43:01.051Z,3.60
2019-02-23T12:45:29.164Z,3.70
2019-02-23T12:47:57.395Z,3.70
2019-02-23T12:50:26.392Z,3.70
2019-02-23T12:52:54.390Z,3.80
2019-02-23T12:55:22.331Z,3.80
2019-02-23T12:57:50.522Z,3.80
2019-02-23T13:00:18.769Z,3.90
2019-02-23T13:02:47.087Z,4.00
2019-02-23T13:05:15.164Z,4.00
2019-02-23T13:07:43.288Z,4.00
2019-02-23T13:10:11.711Z,4.10
2019-02-23T13:13:04.864Z,4.20
2019-02-23T13:15:43.999Z,4.30
2019-02-23T13:18:45.759Z,4.10
2019-02-23T13:21:25.898Z,4.10
2019-02-23T13:24:34.302Z,4.00
2019-02-23T13:27:26.369Z,4.00
2019-02-23T13:30:35.043Z,4.20
2019-02-23T13:33:33.389Z,4.10
2019-02-23T13:36:37.775Z,4.10
2019-02-23T13:39:40.559Z,4.20
2019-02-23T13:42:43.959Z,4.20
2019-02-23T13:45:44.621Z,4.10
2019-02-23T13:48:44.814Z,4.20
2019-02-23T13:51:37.722Z,4.20
2019-02-23T13:54:39.338Z,4.20
2019-02-23T13:57:47.336Z,4.20
2019-02-23T14:00:44.443Z,4.30
2019-02-23T14:04:04.893Z,4.20
2019-02-23T14:07:05.979Z,4.20
2019-02-23T14:10:22.039Z,4.10
2019-02-23T14:13:13.867Z,4.20
2019-02-23T14:16:25.003Z,4.30
2019-02-23T14:19:24.412Z,4.10
2019-02-23T14:22:47.169Z,4.30
2019-02-23T14:25:58.884Z,4.30
2019-02-23T14:28:58.408Z,4.50
2019-02-23T14:32:00.748Z,4.40
2019-02-23T14:35:07.075Z,4.30
2019-02-23T14:38:12.894Z,4.30
2019-02-23T14:40:57.151Z,4.30
2019-02-23T14:43:51.203Z,4.30
2019-02-23T14:47:12.591Z,4.20
2019-02-23T14:49:53.732Z,4.30
2019-02-23T14:52:48.428Z,4.20
2019-02-23T14:55:44.843Z,4.20
2019-02-23T14:59:04.122Z,4.10
2019-02-23T15:01:59.217Z,4.10
2019-02-23T15:05:01.919Z,4.20
2019-02-23T15:08:35.835Z,4.20
2019-02-23T15:11:40.272Z,4.20
2019-02-23T15:14:58.661Z,4.10
2019-02-23T15:18:07.488Z,4.00
2019-02-23T15:21:00.283Z,3.90
2019-02-23T15:23:59.286Z,3.80
2019-02-23T15:27:16.683Z,3.80
2019-02-23T15:30:16.528Z,3.80
2019-02-23T15:33:15.084Z,3.70
2019-02-23T15:36:32.740Z,3.60
2019-02-23T15:39:43.800Z,3.50
2019-02-23T15:42:58.415Z,3.50
2019-02-23T15:46:17.146Z,3.50
2019-02-23T15:49:22.787Z,3.40
2019-02-23T15:51:51.102Z,3.30
2019-02-23T15:54:19.345Z,3.20
2019-02-23T15:56:47.483Z,3.10
2019-02-23T15:59:15.657Z,3.00
2019-02-23T16:01:43.856Z,3.00
2019-02-23T16:04:12.000Z,2.90
2019-02-23T16:06:40.203Z,2.80
2019-02-23T16:09:08.656Z,2.70
2019-02-23T16:11:36.859Z,2.60
2019-02-23T16:14:04.282Z,2.50
2019-02-23T16:16:31.792Z,2.30
2019-02-23T16:18:59.003Z,2.20
2019-02-23T16:21:26.368Z,2.10
2019-02-23T16:23:53.750Z,2.10
2019-02-23T16:26:21.159Z,2.00
2019-02-23T16:28:48.466Z,1.80
2019-02-23T16:31:15.776Z,1.70
2019-02-23T16:33:43.168Z,1.50
2019-02-23T16:36:10.590Z,1.40
2019-02-23T16:38:37.970Z,1.30
2019-02-23T16:41:05.424Z,1.30
2019-02-23T16:43:32.772Z,1.10
2019-02-23T16:46:00.050Z,1.10
2019-02-23T16:48:27.360Z,1.10
2019-02-23T16:50:54.656Z,0.90
2019-02-23T16:53:21.948Z,0.90
2019-02-23T16:55:51.142Z,0.70
2019-02-23T16:58:18.603Z,0.60
2019-02-23T17:00:45.959Z,0.50
2019-02-23T17:03:13.339Z,0.50
2019-02-23T17:05:40.774Z,0.50
2019-02-23T17:08:08.158Z,0.40
2019-02-23T17:10:36.703Z,0.30
2019-02-23T17:13:04.197Z,0.30
2019-02-23T17:15:31.791Z,0.30
2019-02-23T17:18:01.738Z,0.40
2019-02-23T17:20:29.053Z,0.40
2019-02-23T17:22:56.379Z,0.30
2019-02-23T17:25:37.351Z,0.30
2019-02-23T17:28:08.852Z,0.20
2019-02-23T17:30:36.064Z,0.10
2019-02-23T17:33:04.469Z,0.00
2019-02-23T17:35:31.874Z,-0.10
2019-02-23T17:37:59.225Z,0.00
2019-02-23T17:40:26.585Z,-0.10
2019-02-23T17:42:54.978Z,0.00
2019-02-23T17:46:24.504Z,0.00
2019-02-23T17:48:54.411Z,-0.10
2019-02-23T17:51:22.644Z,-0.10
2019-02-23T17:53:50.970Z,-0.10
2019-02-23T17:56:25.353Z,-0.10
2019-02-23T17:58:55.861Z,-0.20
2019-02-23T18:01:25.468Z,-0.30
2019-02-23T18:03:54.660Z,-0.30
2019-02-23T18:06:23.104Z,-0.40
2019-02-23T18:08:51.299Z,-0.50
2019-02-23T18:11:24.187Z,-0.60
2019-02-23T18:13:52.425Z,-0.70
2019-02-23T18:16:20.376Z,-0.70
2019-02-23T18:18:48.868Z,-0.70
2019-02-23T18:21:18.504Z,-0.70
2019-02-23T18:23:51.475Z,-0.80
2019-02-23T18:26:21.160Z,-0.80
2019-02-23T18:28:49.440Z,-0.80
2019-02-23T18:31:21.835Z,-0.80
2019-02-23T18:33:50.211Z,-0.80
2019-02-23T18:36:18.182Z,-0.60
2019-02-23T18:38:46.445Z,-0.70
2019-02-23T18:41:14.707Z,-0.80
2019-02-23T18:43:42.711Z,-0.80
2019-02-23T18:46:11.140Z,-0.90
2019-02-23T18:48:39.350Z,-0.90
2019-02-23T18:51:07.579Z,-1.00
2019-02-23T18:53:40.713Z,-1.00
2019-02-23T18:56:08.683Z,-1.00
2019-02-23T18:58:37.140Z,-1.10
2019-02-23T19:01:05.470Z,-1.30
2019-02-23T19:03:35.539Z,-1.30
2019-02-23T19:06:03.873Z,-1.50
2019-02-23T19:08:32.186Z,-1.50
2019-02-23T19:11:00.650Z,-1.60
2019-02-23T19:13:30.556Z,-1.60
2019-02-23T19:15:59.063Z,-1.70
2019-02-23T19:18:27.427Z,-1.70
2019-02-23T19:20:55.822Z,-1.80
2019-02-23T19:23:23.934Z,-1.80
2019-02-23T19:25:53.372Z,-1.80
2019-02-23T19:28:21.681Z,-1.90
2019-02-23T19:30:54.607Z,-1.90
2019-02-23T19:33:23.083Z,-2.00
2019-02-23T19:35:54.693Z,-2.10
2019-02-23T19:38:23.986Z,-2.00
2019-02-23T19:40:53.620Z,-2.20
2019-02-23T19:43:26.597Z,-2.20
2019-02-23T19:45:55.576Z,-2.40
2019-02-23T19:48:24.059Z,-2.40
2019-02-23T19:50:58.909Z,-2.40
2019-02-23T19:53:27.345Z,-2.40
2019-02-23T19:55:55.574Z,-2.40
2019-02-23T19:58:24.631Z,-2.40
2019-02-23T20:00:52.935Z,-2.40
2019-02-23T20:03:21.258Z,-2.40
2019-02-23T20:05:50.239Z,-2.30
2019-02-23T20:08:20.016Z,-2.30
2019-02-23T20:10:49.559Z,-2.40
2019-02-23T20:13:17.903Z,-2.40
2019-02-23T20:15:46.432Z,-2.40
2019-02-23T20:18:15.993Z,-2.30
2019-02-23T20:20:45.253Z,-2.40
2019-02-23T20:23:14.070Z,-2.40
2019-02-23T20:25:41.895Z,-2.40
2019-02-23T20:28:10.175Z,-2.50
2019-02-23T20:30:40.737Z,-2.50
2019-02-23T20:33:10.534Z,-2.50
2019-02-23T20:35:39.053Z,-2.50
2019-02-23T20:38:07.483Z,-2.50
2019-02-23T20:40:35.569Z,-2.50
2019-02-23T20:43:03.481Z,-2.50
2019-02-23T20:45:31.839Z,-2.60
2019-02-23T20:48:00.080Z,-2.70
2019-02-23T20:50:28.156Z,-2.70
2019-02-23T20:52:56.867Z,-2.80
2019-02-23T20:55:24.893Z,-2.80
2019-02-23T20:57:53.306Z,-2.90
2019-02-23T21:00:21.546Z,-2.90
2019-02-23T21:02:49.984Z,-2.90
2019-02-23T21:05:20.095Z,-3.00
2019-02-23T21:07:49.367Z,-3.10
2019-02-23T21:10:19.258Z,-3.10
2019-02-23T21:12:51.772Z,-3.20
2019-02-23T21:15:20.932Z,-3.40
2019-02-23T21:17:49.939Z,-3.30
2019-02-23T21:20:18.119Z,-3.20
2019-02-23T21:22:46.404Z,-3.30
2019-02-23T21:25:14.648Z,-3.20
2019-02-23T21:27:44.442Z,-3.20
2019-02-23T21:30:12.664Z,-3.20
2019-02-23T21:32:40.827Z,-3.20
2019-02-23T21:35:09.107Z,-3.20
2019-02-23T21:37:37.448Z,-3.20
2019-02-23T21:40:05.842Z,-3.20
2019-02-23T21:42:37.488Z,-3.20
2019-02-23T21:45:07.136Z,-3.30
2019-02-23T21:47:35.232Z,-3.20
2019-02-23T21:50:03.639Z,-3.30
2019-02-23T21:52:31.868Z,-3.40
2019-02-23T21:55:00.541Z,-3.40
2019-02-23T21:57:28.924Z,-3.40
2019-02-23T21:59:57.966Z,-3.40
2019-02-23T22:02:26.187Z,-3.40
2019-02-23T22:04:54.335Z,-3.40
2019-02-23T22:07:24.297Z,-3.30
2019-02-23T22:09:52.480Z,-3.30
2019-02-23T22:12:20.732Z,-3.30
2019-02-23T22:14:48.885Z,-3.40
2019-02-23T22:17:17.355Z,-3.40
2019-02-23T22:19:45.902Z,-3.40
2019-02-23T22:22:14.645Z,-3.40
2019-02-23T22:24:43.324Z,-3.40
2019-02-23T22:27:12.215Z,-3.30
2019-02-23T22:29:41.511Z,-3.30
2019-02-23T22:32:09.583Z,-3.30
2019-02-23T22:34:40.018Z,-3.20
2019-02-23T22:37:08.205Z,-3.30
2019-02-23T22:39:36.367Z,-3.40
2019-02-23T22:42:04.736Z,-3.50
2019-02-23T22:44:33.442Z,-3.40
2019-02-23T22:47:01.585Z,-3.40
2019-02-23T22:49:29.940Z,-3.50
2019-02-23T22:51:58.254Z,-3.60
2019-02-23T22:54:27.068Z,-3.80
2019-02-23T22:56:56.463Z,-3.80
2019-02-23T22:59:24.692Z,-3.90
2019-02-23T23:01:52.919Z,-3.90
2019-02-23T23:04:21.384Z,-3.70
2019-02-23T23:06:50.407Z,-3.60
2019-02-23T23:09:19.758Z,-3.60
2019-02-23T23:11:48.612Z,-3.60
2019-02-23T23:14:17.232Z,-3.50
2019-02-23T23:16:45.667Z,-3.50
2019-02-23T23:19:14.968Z,-3.40
2019-02-23T23:21:43.943Z,-3.40
2019-02-23T23:24:12.089Z,-3.40
2019-02-23T23:26:44.106Z,-3.50
2019-02-23T23:29:12.126Z,-3.40
2019-02-23T23:31:40.124Z,-3.40
2019-02-23T23:34:08.374Z,-3.30
2019-02-23T23:36:36.507Z,-3.40
2019-02-23T23:39:05.317Z,-3.30
2019-02-23T23:41:33.636Z,-3.30
2019-02-23T23:44:01.691Z,-3.50
2019-02-23T23:46:29.899Z,-3.60
2019-02-23T23:48:58.092Z,-3.60
2019-02-23T23:51:26.321Z,-3.70
2019-02-23T23:53:54.435Z,-3.40
2019-02-23T23:56:22.661Z,-3.30
2019-02-23T23:58:50.905Z,-3.20
